createdAt,value
2023-02-23T09:11:33.488Z,12.05
2023-02-23T09:12:34.860Z,13.13
2023-02-23T09:13:36.214Z,13.27
2023-02-23T09:14:37.573Z,14.22
2023-02-23T09:15:40.136Z,14.08
2023-02-23T09:16:41.624Z,13.48
2023-02-23T09:17:44.897Z,13.22
2023-02-23T09:18:46.384Z,14.25
2023-02-23T09:19:47.742Z,14.81
2023-02-23T09:20:49.168Z,14.50
2023-02-23T09:21:50.653Z,15.02
2023-02-23T09:22:53.477Z,14.82
2023-02-23T09:23:56.015Z,14.09
2023-02-23T09:24:57.423Z,14.52
2023-02-23T09:26:06.137Z,14.66
2023-02-23T09:27:07.546Z,14.59
2023-02-23T09:28:12.068Z,14.94
2023-02-23T09:29:13.473Z,14.76
2023-02-23T09:30:17.974Z,15.06
2023-02-23T09:31:22.757Z,14.34
2023-02-23T09:32:24.626Z,14.63
2023-02-23T09:33:26.254Z,15.16
2023-02-23T09:34:30.710Z,15.37
2023-02-23T09:35:32.588Z,15.21
2023-02-23T09:36:34.027Z,15.17
2023-02-23T09:37:35.462Z,15.01
2023-02-23T09:38:36.868Z,15.23
2023-02-23T09:39:39.156Z,14.86
2023-02-23T09:40:47.549Z,14.89
2023-02-23T09:42:15.343Z,15.23
2023-02-23T09:43:20.126Z,15.57
2023-02-23T09:44:23.488Z,15.78
2023-02-23T09:45:59.311Z,15.82
2023-02-23T09:47:51.760Z,15.82
2023-02-23T09:48:57.073Z,15.43
2023-02-23T09:50:00.883Z,16.06
2023-02-23T09:51:06.394Z,16.32
2023-02-23T09:52:18.493Z,16.27
2023-02-23T09:53:29.257Z,16.08
2023-02-23T09:54:34.792Z,15.73
2023-02-23T09:55:40.906Z,15.19
2023-02-23T09:56:47.852Z,15.15
2023-02-23T09:57:49.748Z,14.66
2023-02-23T09:58:51.321Z,14.13
2023-02-23T09:59:53.151Z,14.45
2023-02-23T10:00:57.909Z,14.09
2023-02-23T10:02:24.257Z,13.94
2023-02-23T10:03:34.092Z,13.66
2023-02-23T10:04:48.811Z,13.76
2023-02-23T10:06:02.577Z,13.93
2023-02-23T10:07:16.408Z,13.27
2023-02-23T10:08:42.164Z,12.61
2023-02-23T10:10:02.083Z,12.35
2023-02-23T10:11:18.405Z,12.57
2023-02-23T10:12:32.768Z,13.10
2023-02-23T10:14:01.659Z,13.43
2023-02-23T10:15:38.435Z,14.73
2023-02-23T10:16:50.976Z,14.99
2023-02-23T10:18:09.136Z,14.54
2023-02-23T10:19:22.715Z,14.41
2023-02-23T10:20:32.170Z,14.84
2023-02-23T10:21:38.849Z,15.58
2023-02-23T10:22:41.587Z,15.74
2023-02-23T10:23:47.620Z,15.70
2023-02-23T10:24:55.959Z,15.74
2023-02-23T10:26:00.724Z,15.93
2023-02-23T10:27:21.696Z,15.29
2023-02-23T10:28:23.291Z,15.02
2023-02-23T10:29:47.990Z,14.31
2023-02-23T10:30:50.956Z,14.39
2023-02-23T10:31:59.655Z,13.62
2023-02-23T10:33:16.481Z,13.04
2023-02-23T10:34:18.673Z,12.80
2023-02-23T10:35:22.370Z,12.64
2023-02-23T10:36:39.082Z,12.65
2023-02-23T10:37:40.559Z,12.34
2023-02-23T10:38:41.993Z,12.25
2023-02-23T10:39:43.393Z,12.41
2023-02-23T10:40:49.921Z,12.36
2023-02-23T10:41:52.793Z,12.43
2023-02-23T10:42:59.797Z,12.30
2023-02-23T10:44:15.368Z,12.28
2023-02-23T10:45:24.736Z,12.11
2023-02-23T10:46:35.342Z,12.36
2023-02-23T10:47:37.643Z,12.04
2023-02-23T10:48:42.956Z,11.78
2023-02-23T10:49:48.073Z,11.76
2023-02-23T10:50:52.205Z,11.54
2023-02-23T10:51:58.074Z,11.68
2023-02-23T10:53:17.235Z,11.57
2023-02-23T10:54:35.426Z,11.54
2023-02-23T10:55:36.868Z,11.66
2023-02-23T10:56:46.347Z,11.93
2023-02-23T12:01:56.867Z,14.48
2023-02-23T12:03:00.997Z,15.71
2023-02-23T12:04:03.333Z,15.63
2023-02-23T12:05:09.264Z,15.14
2023-02-23T12:06:11.164Z,14.99
2023-02-23T12:07:28.477Z,15.71
2023-02-23T12:08:46.585Z,15.68
2023-02-23T12:10:03.152Z,15.43
2023-02-23T12:11:12.953Z,15.22
2023-02-23T12:12:18.708Z,15.12
2023-02-23T12:13:42.153Z,14.77
2023-02-23T12:14:51.209Z,14.48
2023-02-23T12:16:12.396Z,14.32
2023-02-23T12:17:23.856Z,14.17
2023-02-23T12:18:43.013Z,14.08
